createdAt,value
2022-08-12T00:02:05.620Z,2.30
2022-08-12T00:04:53.474Z,2.30
2022-08-12T00:07:51.532Z,2.40
2022-08-12T00:10:38.280Z,2.50
2022-08-12T00:13:27.941Z,2.53
2022-08-12T00:16:14.157Z,2.33
2022-08-12T00:18:59.922Z,2.70
2022-08-12T00:21:45.527Z,2.33
2022-08-12T00:24:32.299Z,2.30
2022-08-12T00:27:17.590Z,2.50
2022-08-12T00:30:04.699Z,2.40
2022-08-12T00:32:54.496Z,3.00
2022-08-12T00:35:42.338Z,2.20
2022-08-12T00:38:27.591Z,2.40
2022-08-12T00:41:13.347Z,2.57
2022-08-12T00:43:44.962Z,2.37
2022-08-12T00:46:32.646Z,2.43
2022-08-12T00:49:01.970Z,2.20
2022-08-12T00:51:52.900Z,2.27
2022-08-12T00:54:21.123Z,2.70
2022-08-12T00:56:51.170Z,2.40
2022-08-12T00:59:20.340Z,3.20
2022-08-12T01:02:01.074Z,2.73
2022-08-12T01:05:01.738Z,2.50
2022-08-12T01:07:47.951Z,2.50
2022-08-12T01:10:33.830Z,2.50
2022-08-12T01:13:18.213Z,2.77
2022-08-12T01:15:52.449Z,2.40
2022-08-12T01:18:23.593Z,2.70
2022-08-12T01:21:06.520Z,2.77
2022-08-12T01:23:59.037Z,3.40
2022-08-12T01:26:29.749Z,3.10
2022-08-12T01:29:00.629Z,3.10
2022-08-12T01:31:30.567Z,2.80
2022-08-12T01:34:36.466Z,3.00
2022-08-12T01:37:00.310Z,3.03
2022-08-12T01:39:32.261Z,2.67
2022-08-12T01:42:07.117Z,3.13
2022-08-12T01:44:36.224Z,2.80
2022-08-12T01:47:12.343Z,3.40
2022-08-12T01:49:51.586Z,2.93
2022-08-12T01:52:44.810Z,3.23
2022-08-12T01:55:16.822Z,3.17
2022-08-12T01:57:59.656Z,2.63
2022-08-12T02:00:55.192Z,3.00
2022-08-12T02:03:56.694Z,2.83
2022-08-12T02:06:47.992Z,2.60
2022-08-12T02:09:37.703Z,2.80
2022-08-12T02:12:15.503Z,3.00
2022-08-12T02:14:56.868Z,2.67
2022-08-12T02:17:55.059Z,2.83
2022-08-12T02:20:35.284Z,2.83
2022-08-12T02:23:20.456Z,2.53
2022-08-12T02:25:52.085Z,3.30
2022-08-12T02:28:20.350Z,2.63
2022-08-12T02:30:50.834Z,2.93
2022-08-12T02:33:20.033Z,2.83
2022-08-12T02:35:48.617Z,2.97
2022-08-12T02:38:17.843Z,2.83
2022-08-12T02:40:52.918Z,2.77
2022-08-12T02:43:28.269Z,2.70
2022-08-12T02:46:04.319Z,3.10
2022-08-12T02:48:36.658Z,2.70
2022-08-12T02:51:07.340Z,2.93
2022-08-12T02:53:38.351Z,3.00
2022-08-12T02:56:08.292Z,3.07
2022-08-12T02:58:41.363Z,2.70
2022-08-12T03:01:15.209Z,3.00
2022-08-12T03:03:43.158Z,2.83
2022-08-12T03:06:15.821Z,3.20
2022-08-12T03:08:47.044Z,3.43
2022-08-12T03:11:26.817Z,3.17
2022-08-12T03:14:00.010Z,2.93
2022-08-12T03:16:33.059Z,3.20
2022-08-12T03:19:01.659Z,3.20
2022-08-12T03:21:52.191Z,3.20
2022-08-12T03:24:18.714Z,3.17
2022-08-12T03:26:49.264Z,2.90
2022-08-12T03:29:18.106Z,3.10
2022-08-12T03:31:49.484Z,3.20
2022-08-12T03:34:29.804Z,3.37
2022-08-12T03:36:58.630Z,2.87
2022-08-12T03:39:37.305Z,3.27
2022-08-12T03:42:22.489Z,3.37
2022-08-12T03:45:17.045Z,4.07
2022-08-12T03:48:11.162Z,3.20
2022-08-12T03:50:59.641Z,3.50
2022-08-12T03:53:47.569Z,3.20
2022-08-12T03:56:33.486Z,3.30
2022-08-12T03:59:20.693Z,3.60
2022-08-12T04:01:55.246Z,3.23
2022-08-12T04:04:25.716Z,3.07
2022-08-12T04:06:53.942Z,3.70
2022-08-12T04:09:23.657Z,3.63
2022-08-12T04:12:09.631Z,3.23
2022-08-12T04:14:38.699Z,3.40
2022-08-12T04:17:06.916Z,3.20
2022-08-12T04:19:40.882Z,3.00
2022-08-12T04:22:20.473Z,3.70
2022-08-12T04:24:50.374Z,3.87
2022-08-12T04:27:18.840Z,3.60
2022-08-12T04:30:16.535Z,3.23
2022-08-12T04:32:40.861Z,3.43
2022-08-12T04:35:13.928Z,3.43
2022-08-12T04:37:59.780Z,3.20
2022-08-12T04:40:31.450Z,3.30
2022-08-12T04:43:01.333Z,3.77
2022-08-12T04:45:30.258Z,3.70
2022-08-12T04:47:58.602Z,3.40
2022-08-12T04:50:34.831Z,3.50
2022-08-12T04:53:06.154Z,3.37
2022-08-12T04:55:34.798Z,3.67
2022-08-12T04:58:03.054Z,4.07
2022-08-12T05:00:31.049Z,3.83
2022-08-12T05:02:59.274Z,3.70
2022-08-12T05:05:35.209Z,3.83
2022-08-12T05:08:04.863Z,4.43
2022-08-12T05:10:35.809Z,3.67
2022-08-12T05:13:08.558Z,4.37
2022-08-12T05:16:00.181Z,3.60
2022-08-12T05:18:29.252Z,3.60
2022-08-12T05:21:00.140Z,3.47
2022-08-12T05:23:31.337Z,3.90
2022-08-12T05:26:01.023Z,4.17
2022-08-12T05:28:30.567Z,3.57
2022-08-12T05:31:02.076Z,3.73
2022-08-12T05:33:37.896Z,3.30
2022-08-12T05:36:08.948Z,4.10
2022-08-12T05:38:55.253Z,4.23
2022-08-12T05:41:24.661Z,3.47
2022-08-12T05:43:54.580Z,3.47
2022-08-12T05:46:24.049Z,3.50
2022-08-12T05:48:54.468Z,3.60
2022-08-12T05:51:25.494Z,3.47
2022-08-12T05:54:08.162Z,3.53
2022-08-12T05:56:37.592Z,3.23
2022-08-12T05:59:08.009Z,3.50
2022-08-12T06:02:10.842Z,3.77
2022-08-12T06:04:24.736Z,3.10
2022-08-12T06:06:54.390Z,3.27
2022-08-12T06:09:22.806Z,4.20
2022-08-12T06:12:04.805Z,4.00
2022-08-12T06:14:37.032Z,3.80
2022-08-12T06:17:08.833Z,3.30
2022-08-12T06:20:26.685Z,3.90
2022-08-12T06:22:26.798Z,3.80
2022-08-12T06:24:55.059Z,4.07
2022-08-12T06:27:23.067Z,4.20
2022-08-12T06:30:10.072Z,4.10
2022-08-12T06:32:51.913Z,3.93
2022-08-12T06:35:48.888Z,3.80
2022-08-12T06:38:20.871Z,3.53
2022-08-12T06:41:13.172Z,3.67
2022-08-12T06:44:06.951Z,3.50
2022-08-12T06:46:30.962Z,3.57
2022-08-12T06:49:01.171Z,3.43
2022-08-12T06:51:34.454Z,3.53
2022-08-12T06:54:04.044Z,3.38
2022-08-12T06:57:02.353Z,3.70
2022-08-12T06:59:23.038Z,3.42
2022-08-12T07:01:52.055Z,3.60
2022-08-12T07:04:36.300Z,4.05
2022-08-12T07:07:07.344Z,3.50
2022-08-12T07:10:05.057Z,3.65
2022-08-12T07:12:37.694Z,3.40
2022-08-12T07:15:06.620Z,3.50
2022-08-12T07:17:38.156Z,3.63
2022-08-12T07:20:10.021Z,3.40
2022-08-12T07:22:42.175Z,3.10
2022-08-12T07:25:29.891Z,3.25
2022-08-12T07:28:14.086Z,4.03
2022-08-12T07:30:49.820Z,3.35
2022-08-12T07:33:25.396Z,3.13
2022-08-12T07:36:03.937Z,3.38
2022-08-12T07:38:33.821Z,2.97
2022-08-12T07:41:06.984Z,3.00
2022-08-12T07:43:53.041Z,3.67
2022-08-12T07:46:31.322Z,3.30
2022-08-12T07:49:04.269Z,3.78
2022-08-12T07:51:33.591Z,2.95
2022-08-12T07:54:11.911Z,3.30
2022-08-12T07:56:43.714Z,3.00
2022-08-12T07:59:12.776Z,3.60
2022-08-12T08:01:41.494Z,3.65
2022-08-12T08:04:29.521Z,2.97
2022-08-12T08:07:03.784Z,2.80
2022-08-12T08:09:35.134Z,2.83
2022-08-12T08:12:25.417Z,2.70
2022-08-12T08:14:55.926Z,2.92
2022-08-12T08:17:24.144Z,3.38
2022-08-12T08:20:04.008Z,3.00
2022-08-12T08:22:42.623Z,2.65
2022-08-12T08:25:34.959Z,2.70
2022-08-12T08:28:02.832Z,3.35
2022-08-12T08:30:32.239Z,2.97
2022-08-12T08:33:00.786Z,2.60
2022-08-12T08:35:37.774Z,2.65
2022-08-12T08:38:33.278Z,2.63
2022-08-12T08:42:16.224Z,2.30
2022-08-12T08:44:13.779Z,2.67
2022-08-12T08:46:44.639Z,2.88
2022-08-12T08:49:13.049Z,2.72
2022-08-12T08:51:40.999Z,2.60
2022-08-12T08:54:12.235Z,2.60
2022-08-12T08:56:49.951Z,2.55
2022-08-12T08:59:20.341Z,3.15
2022-08-12T09:01:48.931Z,2.83
2022-08-12T09:05:08.523Z,2.63
2022-08-12T09:07:18.024Z,2.78
2022-08-12T09:10:02.398Z,3.03
2022-08-12T09:15:41.651Z,2.80
2022-08-12T09:18:12.018Z,2.60
2022-08-12T09:20:42.509Z,2.63
2022-08-12T09:24:00.036Z,2.28
2022-08-12T09:26:04.595Z,2.17
2022-08-12T09:28:34.493Z,2.25
2022-08-12T09:32:06.480Z,2.30
2022-08-12T09:34:25.721Z,2.00
2022-08-12T09:36:58.248Z,2.25
2022-08-12T09:40:02.175Z,2.15
2022-08-12T09:42:43.480Z,2.00
2022-08-12T09:45:23.319Z,2.33
2022-08-12T09:47:59.136Z,2.13
2022-08-12T09:50:28.025Z,2.17
2022-08-12T09:53:14.830Z,1.83
2022-08-12T09:56:06.301Z,1.98
2022-08-12T09:58:58.805Z,1.95
2022-08-12T10:01:25.779Z,2.00
2022-08-12T10:04:09.918Z,2.00
2022-08-12T10:06:55.399Z,2.03
2022-08-12T10:09:56.846Z,2.17
2022-08-12T10:12:32.889Z,2.03
2022-08-12T10:15:01.635Z,2.10
2022-08-12T10:17:29.639Z,1.88
2022-08-12T10:19:59.762Z,2.03
2022-08-12T10:22:40.428Z,2.17
2022-08-12T10:26:35.087Z,2.00
2022-08-12T10:28:39.357Z,1.90
2022-08-12T10:31:15.899Z,2.15
2022-08-12T10:34:04.945Z,2.08
2022-08-12T10:36:42.639Z,1.90
2022-08-12T10:40:00.395Z,1.88
2022-08-12T10:42:18.338Z,2.10
2022-08-12T10:45:00.959Z,2.35
2022-08-12T10:48:15.920Z,2.03
2022-08-12T10:50:23.719Z,2.20
2022-08-12T10:53:08.893Z,2.50
2022-08-12T10:55:38.837Z,2.30
2022-08-12T10:58:30.853Z,1.85
2022-08-12T11:01:49.821Z,2.10
2022-08-12T11:04:24.243Z,2.30
2022-08-12T11:07:06.190Z,2.13
2022-08-12T11:09:51.226Z,6.20
2022-08-12T11:12:56.718Z,2.10
2022-08-12T11:15:19.443Z,2.00
2022-08-12T11:17:55.698Z,1.88
2022-08-12T11:20:31.096Z,2.38
2022-08-12T11:23:03.867Z,2.35
2022-08-12T11:25:53.679Z,2.10
2022-08-12T11:28:34.232Z,1.95
2022-08-12T11:31:05.436Z,2.20
2022-08-12T11:34:04.589Z,2.05
2022-08-12T11:36:24.478Z,1.77
2022-08-12T11:38:54.352Z,2.17
2022-08-12T11:41:31.527Z,1.92
2022-08-12T11:43:59.995Z,2.33
2022-08-12T11:46:51.223Z,2.05
2022-08-12T11:49:30.688Z,1.92
2022-08-12T11:51:59.857Z,2.03
2022-08-12T11:54:29.515Z,1.73
2022-08-12T11:57:01.993Z,2.00
2022-08-12T12:02:21.694Z,1.60
2022-08-12T12:04:52.974Z,2.03
2022-08-12T12:08:36.040Z,2.15
2022-08-12T12:10:15.502Z,2.10
2022-08-12T12:12:49.434Z,2.17
2022-08-12T12:15:24.803Z,2.00
2022-08-12T12:17:56.011Z,2.10
2022-08-12T12:20:26.205Z,2.30
2022-08-12T12:22:58.497Z,1.98
2022-08-12T12:26:07.367Z,1.63
2022-08-12T12:28:37.131Z,2.10
2022-08-12T12:31:04.688Z,2.00
2022-08-12T12:33:57.124Z,1.83
2022-08-12T12:36:30.183Z,2.13
2022-08-12T12:39:00.046Z,2.03
2022-08-12T12:42:47.599Z,2.30
2022-08-12T12:44:25.935Z,2.03
2022-08-12T12:47:29.308Z,2.45
2022-08-12T12:49:54.480Z,2.30
2022-08-12T12:52:26.753Z,1.80
2022-08-12T12:54:55.745Z,1.88
2022-08-12T12:57:36.371Z,1.88
2022-08-12T13:00:16.624Z,2.10
2022-08-12T13:02:54.005Z,1.85
2022-08-12T13:05:27.871Z,2.05
2022-08-12T13:08:00.678Z,1.83
2022-08-12T13:10:36.592Z,2.03
2022-08-12T13:14:07.474Z,1.98
2022-08-12T13:15:59.591Z,1.95
2022-08-12T13:18:33.481Z,1.80
2022-08-12T13:21:02.503Z,2.17
2022-08-12T13:23:36.027Z,1.67
2022-08-12T13:26:05.687Z,1.95
2022-08-12T13:28:33.513Z,1.63
2022-08-12T13:31:03.384Z,1.90
2022-08-12T13:34:32.348Z,2.15
2022-08-12T13:36:21.443Z,2.10
2022-08-12T13:38:54.658Z,1.80
2022-08-12T13:41:34.496Z,1.90
2022-08-12T13:44:04.599Z,1.95
2022-08-12T13:46:36.114Z,2.00
2022-08-12T13:49:06.422Z,1.80
2022-08-12T13:51:40.664Z,1.90
2022-08-12T13:54:11.683Z,2.10
2022-08-12T13:56:42.041Z,1.73
2022-08-12T13:59:24.420Z,2.00
2022-08-12T14:01:56.808Z,2.00
2022-08-12T14:04:25.052Z,2.10
2022-08-12T14:06:55.493Z,1.90
2022-08-12T14:09:23.342Z,2.03
2022-08-12T14:11:58.747Z,1.77
2022-08-12T14:14:31.410Z,2.13
2022-08-12T14:17:10.870Z,2.00
2022-08-12T14:20:00.615Z,1.65
2022-08-12T14:22:28.839Z,1.73
2022-08-12T14:24:58.770Z,1.92
2022-08-12T14:28:04.735Z,2.13
2022-08-12T14:30:29.082Z,1.80
2022-08-12T14:33:03.240Z,2.00
2022-08-12T14:35:41.188Z,2.00
2022-08-12T14:38:26.086Z,1.67
2022-08-12T14:40:57.469Z,1.85
2022-08-12T14:43:31.726Z,2.22
2022-08-12T14:46:15.532Z,1.83
2022-08-12T14:48:46.263Z,2.05
2022-08-12T14:52:43.340Z,2.00
2022-08-12T14:56:59.850Z,1.95
2022-08-12T14:57:19.119Z,1.73
2022-08-12T15:00:04.040Z,1.70
2022-08-12T15:02:31.944Z,1.75
2022-08-12T15:05:03.816Z,1.90
2022-08-12T15:07:43.795Z,1.73
2022-08-12T15:10:31.202Z,1.65
2022-08-12T15:13:06.843Z,2.05
2022-08-12T15:15:38.521Z,1.63
2022-08-12T15:18:13.545Z,1.90
2022-08-12T15:20:43.006Z,1.70
2022-08-12T15:23:17.959Z,1.98
2022-08-12T15:25:49.727Z,1.88
2022-08-12T15:28:29.354Z,1.60
2022-08-12T15:31:00.771Z,1.92
2022-08-12T15:33:44.623Z,1.73
2022-08-12T15:36:19.206Z,1.52
2022-08-12T15:38:47.685Z,1.58
2022-08-12T15:41:16.377Z,1.55
2022-08-12T15:44:17.184Z,1.70
2022-08-12T15:46:32.668Z,1.45
2022-08-12T15:49:00.619Z,1.50
2022-08-12T15:51:57.258Z,1.35
2022-08-12T15:54:33.521Z,1.40
2022-08-12T15:57:05.669Z,1.55
2022-08-12T15:59:51.595Z,1.50
2022-08-12T16:02:21.654Z,1.42
2022-08-12T16:04:50.421Z,1.60
2022-08-12T16:07:29.580Z,1.42
2022-08-12T16:10:08.379Z,1.38
2022-08-12T16:12:43.449Z,1.50
2022-08-12T16:15:25.021Z,1.10
2022-08-12T16:18:19.858Z,1.55
2022-08-12T16:20:42.641Z,1.10
2022-08-12T16:23:36.319Z,1.20
2022-08-12T16:26:14.634Z,1.23
2022-08-12T16:28:47.473Z,1.23
2022-08-12T16:31:22.923Z,1.20
2022-08-12T16:33:58.767Z,1.38
2022-08-12T16:36:29.857Z,1.10
2022-08-12T16:39:03.620Z,1.42
2022-08-12T16:41:39.417Z,1.13
2022-08-12T16:44:08.501Z,1.00
2022-08-12T16:46:37.586Z,1.00
2022-08-12T16:49:13.041Z,1.10
2022-08-12T16:51:46.662Z,1.10
2022-08-12T16:54:18.500Z,1.15
2022-08-12T16:56:54.905Z,1.00
2022-08-12T16:59:26.302Z,1.05
2022-08-12T17:02:31.124Z,0.90
2022-08-12T17:05:03.357Z,1.10
2022-08-12T17:07:38.128Z,0.98
2022-08-12T17:10:18.334Z,1.10
2022-08-12T17:13:03.119Z,1.10
2022-08-12T17:15:57.083Z,1.10
2022-08-12T17:18:42.719Z,1.25
2022-08-12T17:21:17.427Z,1.05
2022-08-12T17:23:54.177Z,1.20
2022-08-12T17:26:30.973Z,1.10
2022-08-12T17:29:00.272Z,1.08
2022-08-12T17:32:00.407Z,1.10
2022-08-12T17:34:33.362Z,1.02
2022-08-12T17:37:05.563Z,1.20
2022-08-12T17:40:06.745Z,1.23
2022-08-12T17:42:32.638Z,1.05
2022-08-12T17:45:18.245Z,1.30
2022-08-12T17:48:01.436Z,1.13
2022-08-12T17:50:33.378Z,1.05
2022-08-12T17:53:04.765Z,1.10
2022-08-12T17:55:43.456Z,1.15
2022-08-12T17:58:18.461Z,1.13
2022-08-12T18:00:50.836Z,1.15
2022-08-12T18:04:05.090Z,1.23
2022-08-12T18:06:14.415Z,0.93
2022-08-12T18:08:54.627Z,1.08
2022-08-12T18:12:05.506Z,1.30
2022-08-12T18:14:31.486Z,1.23
2022-08-12T18:17:08.270Z,1.25
2022-08-12T18:20:05.480Z,1.00
2022-08-12T18:22:30.558Z,1.30
2022-08-12T18:25:04.218Z,1.17
2022-08-12T18:27:45.880Z,1.25
2022-08-12T18:30:28.818Z,1.40
2022-08-12T18:33:03.513Z,1.23
2022-08-12T18:35:52.908Z,1.10
2022-08-12T18:38:24.746Z,1.20
2022-08-12T18:41:20.900Z,1.23
2022-08-12T18:43:58.925Z,1.13
2022-08-12T18:46:35.709Z,1.05
2022-08-12T18:49:16.854Z,1.00
2022-08-12T18:51:55.615Z,1.25
2022-08-12T18:54:34.090Z,0.98
2022-08-12T18:57:04.791Z,1.10
2022-08-12T19:00:01.617Z,1.13
2022-08-12T19:02:25.024Z,1.20
2022-08-12T19:04:54.244Z,1.45
2022-08-12T19:07:24.647Z,1.20
2022-08-12T19:09:57.543Z,1.10
2022-08-12T19:12:56.971Z,1.60
2022-08-12T19:15:27.024Z,1.20
2022-08-12T19:18:06.566Z,1.10
2022-08-12T19:20:35.838Z,1.10
2022-08-12T19:23:07.959Z,0.98
2022-08-12T19:26:00.714Z,1.33
2022-08-12T19:28:55.126Z,1.42
2022-08-12T19:31:57.682Z,1.38
2022-08-12T19:37:38.340Z,1.48
2022-08-12T19:40:20.611Z,1.50
2022-08-12T19:43:01.865Z,1.17
2022-08-12T19:45:42.379Z,1.30
2022-08-12T19:48:17.926Z,1.13
2022-08-12T19:50:50.538Z,1.13
2022-08-12T19:53:22.657Z,1.38
2022-08-12T19:55:58.216Z,1.52
2022-08-12T19:58:27.147Z,1.60
2022-08-12T20:00:55.801Z,1.33
2022-08-12T20:03:40.591Z,1.40
2022-08-12T20:06:15.574Z,1.70
2022-08-12T20:08:48.741Z,1.33
2022-08-12T20:12:14.048Z,1.40
2022-08-12T20:14:18.941Z,1.10
2022-08-12T20:16:53.194Z,1.75
2022-08-12T20:19:52.981Z,1.52
2022-08-12T20:22:24.270Z,1.60
2022-08-12T20:25:01.652Z,1.45
2022-08-12T20:28:04.908Z,1.30
2022-08-12T20:30:37.567Z,1.70
2022-08-12T20:33:18.283Z,1.65
2022-08-12T20:36:14.467Z,1.45
2022-08-12T20:38:45.923Z,1.38
2022-08-12T20:41:17.833Z,1.40
2022-08-12T20:43:49.381Z,1.40
2022-08-12T20:46:19.113Z,1.30
2022-08-12T20:48:54.836Z,1.30
2022-08-12T20:51:27.757Z,1.88
2022-08-12T20:53:59.653Z,1.73
2022-08-12T20:56:35.329Z,1.25
2022-08-12T20:59:06.721Z,1.80
2022-08-12T21:01:46.397Z,1.60
2022-08-12T21:04:34.984Z,1.50
2022-08-12T21:07:09.266Z,1.30
2022-08-12T21:09:42.212Z,1.50
2022-08-12T21:12:31.156Z,1.50
2022-08-12T21:15:17.589Z,1.60
2022-08-12T21:18:11.439Z,1.70
2022-08-12T21:20:52.499Z,1.75
2022-08-12T21:23:21.182Z,1.70
2022-08-12T21:25:52.513Z,1.98
2022-08-12T21:28:31.303Z,1.85
2022-08-12T21:32:36.168Z,1.77
2022-08-12T21:34:06.591Z,2.47
2022-08-12T21:36:39.878Z,1.90
2022-08-12T21:39:19.258Z,2.15
2022-08-12T21:41:52.577Z,2.00
2022-08-12T21:44:32.502Z,1.70
2022-08-12T21:47:19.579Z,2.00
2022-08-12T21:49:55.206Z,2.00
2022-08-12T21:52:34.568Z,2.20
2022-08-12T21:55:03.114Z,2.17
2022-08-12T21:57:50.610Z,2.50
2022-08-12T22:00:24.020Z,2.30
2022-08-12T22:03:25.118Z,1.90
2022-08-12T22:06:25.957Z,2.20
2022-08-12T22:09:01.962Z,2.10
2022-08-12T22:11:42.264Z,2.00
2022-08-12T22:14:17.974Z,2.40
2022-08-12T22:16:50.766Z,2.30
2022-08-12T22:19:19.667Z,2.05
2022-08-12T22:21:53.119Z,2.10
2022-08-12T22:24:26.210Z,1.77
2022-08-12T22:27:08.035Z,2.17
2022-08-12T22:30:05.159Z,2.20
2022-08-12T22:32:33.749Z,2.15
2022-08-12T22:35:22.164Z,2.20
2022-08-12T22:37:53.472Z,2.33
2022-08-12T22:40:21.799Z,2.30
2022-08-12T22:43:07.141Z,2.35
2022-08-12T22:46:02.453Z,2.83
2022-08-12T22:48:30.946Z,2.00
2022-08-12T22:50:59.295Z,2.60
2022-08-12T22:53:35.827Z,1.93
2022-08-12T22:56:06.702Z,2.13
2022-08-12T22:58:40.507Z,1.80
2022-08-12T23:01:21.141Z,2.20
2022-08-12T23:04:00.356Z,2.20
2022-08-12T23:06:30.851Z,2.03
2022-08-12T23:08:59.439Z,2.03
2022-08-12T23:11:33.887Z,2.20
2022-08-12T23:14:08.516Z,2.10
2022-08-12T23:16:40.819Z,2.20
2022-08-12T23:19:22.974Z,2.03
2022-08-12T23:22:06.331Z,2.00
2022-08-12T23:24:55.483Z,2.20
2022-08-12T23:27:51.900Z,2.00
2022-08-12T23:30:24.641Z,2.10
2022-08-12T23:32:59.879Z,2.57
2022-08-12T23:35:45.815Z,2.23
2022-08-12T23:38:31.321Z,2.70
2022-08-12T23:41:01.875Z,2.40
2022-08-12T23:43:39.095Z,2.40
2022-08-12T23:46:09.984Z,2.53
2022-08-12T23:48:40.885Z,2.63
2022-08-12T23:51:22.465Z,2.50
2022-08-12T23:53:55.043Z,2.40
2022-08-12T23:56:24.811Z,2.43
2022-08-12T23:58:57.622Z,2.40
